1972 Severe Tropical Cyclone VICKY (1972055S11122)


IBTrACS version v04r00. Visit IBTrACS website for data access.
Please direct all questions to the IBTrACS Q and A forum

Storm track - Intensity - Wind Radii - Intensity Data - Source Data - All data

Summary Information

Storm ID 1972055S11122
Start Feb 23 18Z
Landfall Mar 3 10Z
Max Intensity 90 kt (Mar 3 04Z), 960 mb (Mar 2 00Z)
End Mar 4 04Z
ATCF IDs SH211972
Track status Best track data.

Storm track plot

Map of storm track

Intensity plots

Map of storm track

Radial wind information

No radial wind information for this storm


Position and Intensity Table

BASIN ISO_TIME_________ NATURE LAT LON WMO PRES USA WIND BOM PRES DS824 WIND TD9636 WIND NEUMANN WIND NEUMANN PRES
degrees north degrees east mb kts mb kts kts kts mb
SI 1972-02-23 18:00:00 TS -11.00 122.00 25 25
SI 21:00:00 TS -11.03 122.03 22 22
SI 1972-02-24 00:00:00 TS -11.10 121.90 20 20
SI 01:00:00 TS -11.13 121.82 1000 20 1000 20
SI 03:00:00 TS -11.24 121.54 20 1002 20
SI 04:00:00 TS -11.32 121.37 1004 20 1004 20 20
SI 06:00:00 TS -11.50 121.02 20 1004 20 22 25 1003
SI 07:00:00 TS -11.59 120.85 1004 21 1004 21 23 25 1003
SI 09:00:00 TS -11.81 120.48 25 1004 25 26 25 1003
SI 10:00:00 TS -11.91 120.31 1004 26 1004 26 27 25 1003
SI 12:00:00 TS -12.13 119.94 30 1003 30 30 25 1003
SI 13:00:00 TS -12.23 119.75 1003 30 1003 30 31 25 1002
SI 15:00:00 TS -12.46 119.35 32 1003 32 33 25 1002
SI 16:00:00 TS -12.56 119.16 1003 33 1003 33 35 25 1002
SI 18:00:00 TS -12.77 118.80 35 1003 35 25 1002
SI 19:00:00 TS -12.88 118.62 1003 35 1003 35 25 1002
SI 21:00:00 TS -13.08 118.26 35 1002 35 25 1002
SI 22:00:00 TS -13.18 118.07 1002 35 1002 35 25 1002
SI 1972-02-25 00:00:00 TS -13.34 117.67 35 1002 35 25 1002
SI 01:00:00 TS -13.40 117.47 1002 35 1002 35 25 1001
SI 03:00:00 TS -13.47 117.11 35 1002 35 25 1001
SI 04:00:00 TS -13.47 116.92 1002 35 1002 35 25 1001
SI 06:00:00 TS -13.45 116.49 35 1001 35 25 1001
SI 07:00:00 TS -13.43 116.25 1001 35 1001 35 25 1000
SI 09:00:00 TS -13.35 115.78 35 1001 35 27 1000
SI 10:00:00 TS -13.30 115.54 1001 35 1001 35 28 1000
SI 12:00:00 TS -13.19 115.06 35 1000 35 30 1000
SI 13:00:00 TS -13.15 114.83 1000 35 1000 35 30 999
SI 15:00:00 TS -13.07 114.38 35 1000 35 30 999
SI 16:00:00 TS -13.03 114.15 1000 35 1000 35 30 999
SI 18:00:00 TS -12.99 113.70 35 999 35 30 999
SI 19:00:00 TS -12.98 113.46 999 34 999 34 30 998
SI 21:00:00 TS -12.97 112.97 32 999 32 32 998
SI 22:00:00 TS -12.97 112.73 999 31 999 31 33 998
SI 1972-02-26 00:00:00 TS -12.98 112.27 30 998 30 35 998
SI 01:00:00 TS -12.98 112.06 998 30 998 30 35 997
SI 03:00:00 TS -12.98 111.68 30 996 30 37 996
SI 04:00:00 TS -12.98 111.50 996 30 996 30 38 996
SI 06:00:00 TS -12.98 111.15 30 994 30 40 995
SI 07:00:00 TS -12.99 110.98 994 30 994 30 40 994
SI 09:00:00 TS -13.00 110.65 30 992 30 42 993
SI 10:00:00 TS -13.01 110.49 992 30 992 30 43 992
SI 12:00:00 TS -13.04 110.18 30 990 30 45 991
SI 13:00:00 TS -13.07 110.02 990 30 990 30 46 990
SI 15:00:00 TS -13.14 109.70 30 988 30 50 988
SI 16:00:00 TS -13.19 109.54 988 30 988 30 51 987
SI 18:00:00 TS -13.31 109.22 30 986 30 55 986
SI 19:00:00 TS -13.38 109.05 986 30 986 30 55 985
SI 21:00:00 TS -13.54 108.72 30 983 30 57 983
SI 22:00:00 TS -13.63 108.56 983 30 983 30 58 982
SI 1972-02-27 00:00:00 TS -13.78 108.28 30 980 30 60 981
SI 01:00:00 TS -13.84 108.18 980 29 980 29 60 980
SI 03:00:00 TS -13.93 108.07 27 980 27 60 980
SI 04:00:00 TS -13.97 108.04 980 26 980 26 60 980
SI 06:00:00 TS -14.04 108.00 25 980 25 60 980
SI 07:00:00 TS -14.07 107.99 980 25 980 25 60 980
SI 09:00:00 TS -14.12 107.98 25 980 25 60 980
SI 10:00:00 TS -14.14 107.99 980 25 980 25 60 980
SI 12:00:00 TS -14.18 108.00 25 980 25 60 980
SI 13:00:00 TS -14.21 108.00 980 25 980 25 60 980
SI 15:00:00 TS -14.26 108.01 25 980 25 60 980
SI 16:00:00 TS -14.29 108.01 980 25 980 25 25 60 980
SI 18:00:00 TS -14.34 108.02 25 980 25 60 980
SI 19:00:00 TS -14.35 108.02 980 25 980 25 60 980
SI 21:00:00 TS -14.38 108.05 25 980 25 60 980
SI 22:00:00 TS -14.39 108.06 980 25 980 25 60 980
SI 1972-02-28 00:00:00 TS -14.43 108.10 25 980 25 60 980
SI 01:00:00 TS -14.45 108.11 980 24 980 24 60 980
SI 03:00:00 TS -14.48 108.12 22 980 22 60 980
SI 04:00:00 TS -14.50 108.14 981 21 981 21 60 980
SI 06:00:00 TS -14.55 108.19 20 982 20 60 981
SI 07:00:00 TS -14.58 108.24 983 20 983 20 60 981
SI 09:00:00 TS -14.63 108.34 20 984 20 60 981
SI 10:00:00 TS -14.65 108.40 985 20 985 20 60 981
SI 12:00:00 TS -14.71 108.56 20 985 20 60 982
SI 13:00:00 TS -14.73 108.63 986 20 986 20 59 982
SI 15:00:00 TS -14.76 108.80 20 986 20 57 983
SI 16:00:00 TS -14.78 108.89 987 20 987 20 56 983
SI 18:00:00 TS -14.82 109.11 20 987 20 55 985
SI 19:00:00 TS -14.84 109.23 988 19 988 19 54 985
SI 21:00:00 TS -14.88 109.50 17 988 17 52 986
SI 22:00:00 TS -14.91 109.65 989 16 989 16 51 986
SI 1972-02-29 00:00:00 TS -14.95 109.99 15 989 15 50 988
SI 01:00:00 TS -14.97 110.19 990 15 990 15 50 987
SI 03:00:00 TS -14.99 110.67 15 989 15 52 987
SI 04:00:00 TS -15.00 110.94 989 15 989 15 53 986
SI 06:00:00 TS -15.02 111.45 15 987 15 55 986
SI 07:00:00 TS -15.04 111.71 987 15 987 15 55 985
SI 09:00:00 TS -15.10 112.24 15 984 15 57 983
SI 10:00:00 TS -15.13 112.51 984 15 984 15 58 982
SI 12:00:00 TS -15.19 113.04 15 981 15 60 981
SI 13:00:00 TS -15.22 113.29 981 14 981 14 60 980
SI 15:00:00 TS -15.28 113.81 12 978 12 62 978
SI 16:00:00 TS -15.31 114.07 978 11 978 11 63 977
SI 18:00:00 TS -15.37 114.57 10 975 10 65 976
SI 19:00:00 TS -15.40 114.83 975 10 975 10 66 975
SI 21:00:00 TS -15.44 115.34 10 972 10 70 973
SI 22:00:00 TS -15.46 115.59 972 10 972 10 71 972
SI 1972-03-01 00:00:00 TS -15.50 116.02 10 970 10 75 971
SI 01:00:00 TS -15.51 116.23 970 10 970 10 75 970
SI 03:00:00 TS -15.55 116.63 10 968 10 75 969
SI 04:00:00 TS -15.58 116.82 968 10 968 10 10 75 969
SI 06:00:00 TS -15.62 117.14 10 966 10 10 75 968
SI 07:00:00 TS -15.64 117.28 966 10 966 10 11 75 967
SI 09:00:00 TS -15.67 117.56 10 965 10 12 77 966
SI 10:00:00 TS -15.69 117.70 965 10 965 10 12 78 966
SI 12:00:00 TS -15.73 117.95 10 964 10 13 80 965
SI 13:00:00 TS -15.75 118.08 964 10 964 10 13 80 964
SI 15:00:00 TS -15.78 118.34 12 963 12 14 82 964
SI 16:00:00 TS -15.80 118.47 963 13 963 13 15 83 963
SI 18:00:00 TS -15.83 118.72 15 962 15 17 85 963
SI 19:00:00 TS -15.85 118.84 962 16 962 16 18 85 962
SI 21:00:00 TS -15.88 119.05 20 961 20 21 85 962
SI 22:00:00 TS -15.90 119.16 961 21 961 21 22 85 962
SI 1972-03-02 00:00:00 TS -15.94 119.37 25 960 25 25 85 962
SI 01:00:00 TS -15.96 119.49 960 25 960 25 26 85 961
SI 03:00:00 TS -15.98 119.73 27 960 27 28 85 961
SI 04:00:00 TS -15.99 119.86 961 28 961 28 30 85 961
SI 06:00:00 TS -16.00 120.12 30 961 30 30 85 961
SI 09:00:00 TS -16.01 120.52 32 962 32 32 85 962
SI 10:00:00 TS -16.00 120.65 963 33 963 33 32 85 962
SI 12:00:00 TS -16.00 120.90 35 963 35 33 85 963
SI 13:00:00 TS -16.00 121.02 964 35 964 35 33 84 963
SI 15:00:00 TS -16.00 121.27 37 964 37 34 82 964
SI 16:00:00 TS -16.00 121.39 965 38 965 38 35 81 964
SI 18:00:00 TS -16.00 121.64 40 965 40 44 80 966
SI 19:00:00 TS -16.00 121.77 966 46 966 46 48 79 966
SI 21:00:00 TS -15.99 122.03 60 965 60 57 77 967
SI 22:00:00 TS -15.99 122.16 965 66 965 66 62 76 967
SI 1972-03-03 00:00:00 TS -16.00 122.40 80 968 80 71 75 969
SI 01:00:00 TS -16.02 122.50 970 80 970 80 76 74 969
SI 03:00:00 TS -16.07 122.73 82 971 82 85 72 970
SI 04:00:00 TS -16.10 122.82 972 83 972 83 90 71 970
SI 06:00:00 TS -16.18 122.93 85 973 85 84 70 972
SI 07:00:00 TS -16.22 123.03 974 82 974 82 82 68 972
SI 09:00:00 TS -16.29 123.45 77 975 77 77 65 974
SI 10:00:00 TS -16.34 123.67 976 75 976 75 75 63 974
SI 12:00:00 TS -16.44 123.99 70 977 70 69 60 976
SI 13:00:00 TS -16.50 124.11 978 67 978 67 67 57 976
SI 15:00:00 TS -16.68 124.37 62 979 62 62 52 977
SI 16:00:00 TS -16.76 124.49 980 60 980 60 60 50 977
SI 18:00:00 TS -16.86 124.73 55 980 55 53 45 979
SI 19:00:00 TS -16.89 124.86 980 51 980 51 50 43 980
SI 21:00:00 TS -16.92 125.11 45 984 45 43 40 984
SI 22:00:00 TS -16.92 125.23 987 41 987 41 40 38 986
SI 1972-03-04 00:00:00 TS -16.92 125.46 35 992 35 33 35 990
SI 01:00:00 NR -16.92 125.50 995 995 30
SI 03:00:00 NR -16.91 125.61 23
SI 04:00:00 NR -16.90 125.70 20

Source Information

Agency Information
USA bsh211972.txt
TOKYO
CMA
HKO
NEWDELHI
REUNION
BOM IDCKMSTM0S.csv:Line=6949:VICKY
NADI
WELLINGTON
DS824 s_hem.dat:1182:21S
TD9636 cons_worldwide_trop_cyclone_18710101-19891231-006:Line=8855
TD9635
NEUMANN tracks.sh:Storm=331:VICKY:BSH2172:BM411
MLC

All available IBTrACS Data

SEASON BASIN SUBBASIN ISO_TIME_________ NATURE LAT LON WMO PRES WMO AGENCY DIST2LAND LANDFALL IFLAG USA AGENCY USA ATCF_ID USA LAT USA LON USA WIND USA SSHS BOM LAT BOM LON BOM PRES BOM PRES_METHOD DS824 LAT DS824 LON DS824 STAGE DS824 WIND TD9636 LAT TD9636 LON TD9636 STAGE TD9636 WIND NEUMANN LAT NEUMANN LON NEUMANN CLASS NEUMANN WIND NEUMANN PRES STORM SPEED STORM DIR
Year degrees north degrees east mb km km degrees north degrees east kts 1 degrees north degrees east mb degrees north degrees east kts degrees north degrees east kts degrees north degrees east kts mb kts degrees
1972 SI WA 1972-02-23 18:00:00 TS -11.00 122.00 168 168 O________O____ jtwc_sh SH211972 -11.00 122.00 25 -1 -11.00 122.00 TC 25 1 0
1972 SI WA 21:00:00 TS -11.03 122.03 168 165 P________P____ SH211972 -11.03 122.03 22 -1 -11.03 122.03 TC 22 1 223
1972 SI WA 1972-02-24 00:00:00 TS -11.10 121.90 165 156 O________O____ jtwc_sh SH211972 -11.10 121.90 20 -1 -11.10 121.90 TC 20 3 243
1972 SI WA 01:00:00 TS -11.13 121.82 1000 bom 156 149 P_____O__P____ SH211972 -11.14 121.80 20 -1 -11.00 122.00 1000 -11.14 121.80 TC 20 8 248
1972 SI WA 03:00:00 TS -11.24 121.54 142 142 P_____P__P____ SH211972 -11.26 121.52 20 -1 -11.20 121.60 1002 -11.26 121.52 TC 20 10 247
1972 SI WA 04:00:00 TS -11.32 121.37 1004 bom 145 139 P_____O__PO___ SH211972 -11.33 121.36 20 -1 -11.30 121.40 1004 -11.33 121.36 TC 20 -11.30 121.40 1 20 11 244
1972 SI WA 06:00:00 TS -11.50 121.02 145 141 O_____P__OP_O_ jtwc_sh SH211972 -11.50 121.00 20 -1 -11.50 121.00 1004 -11.50 121.00 TC 20 -11.52 121.01 1 22 -11.40 121.30 TC 25 1003 12 242
1972 SI WA 07:00:00 TS -11.59 120.85 1004 bom 152 149 P_____O__PP_P_ SH211972 -11.60 120.83 21 -1 -11.60 120.80 1004 -11.60 120.83 TC 21 -11.63 120.81 1 23 -11.50 121.12 TC 25 1003 12 239
1972 SI WA 09:00:00 TS -11.81 120.48 168 168 P_____P__PP_P_ SH211972 -11.83 120.47 25 -1 -11.80 120.39 1004 -11.83 120.47 TC 25 -11.85 120.42 1 26 -11.70 120.76 TC 25 1003 12 239
1972 SI WA 10:00:00 TS -11.91 120.31 1004 bom 180 180 P_____O__PP_P_ SH211972 -11.96 120.29 26 -1 -11.90 120.20 1004 -11.96 120.29 TC 26 -11.96 120.23 1 27 -11.80 120.58 TC 25 1003 13 239
1972 SI WA 12:00:00 TS -12.13 119.94 211 211 O_____P__OP_O_ jtwc_sh SH211972 -12.20 119.90 30 -1 -12.09 119.87 1003 -12.20 119.90 TC 30 -12.17 119.84 1 30 -12.00 120.20 TC 25 1003 13 239
1972 SI WA 13:00:00 TS -12.23 119.75 1003 bom 230 230 P_____O__PP_P_ SH211972 -12.31 119.70 30 -1 -12.20 119.70 1003 -12.31 119.70 TC 30 -12.28 119.65 1 31 -12.10 120.01 TC 25 1002 13 240
1972 SI WA 15:00:00 TS -12.46 119.35 271 271 P_____P__PP_P_ SH211972 -12.52 119.29 32 -1 -12.47 119.29 1003 -12.52 119.29 TC 32 -12.49 119.28 1 33 -12.29 119.61 TC 25 1002 13 240
1972 SI WA 16:00:00 TS -12.56 119.16 1003 bom 290 290 P_____O__PO_P_ SH211972 -12.61 119.09 33 -1 -12.60 119.10 1003 -12.61 119.09 TC 33 -12.60 119.10 2 35 -12.39 119.41 TC 25 1002 13 240
1972 SI WA 18:00:00 TS -12.77 118.80 328 328 O_____P__OP_O_ jtwc_sh SH211972 -12.80 118.70 35 0 -12.81 118.84 1003 -12.80 118.70 TC 35 -12.81 118.74 2 -12.60 119.00 TC 25 1002 12 239
1972 SI WA 19:00:00 TS -12.88 118.62 1003 bom 349 349 P_____O__PP_P_ SH211972 -12.90 118.53 35 0 -12.90 118.70 1003 -12.90 118.53 TC 35 -12.91 118.57 2 -12.73 118.80 TC 25 1002 12 239
1972 SI WA 21:00:00 TS -13.08 118.26 385 385 P_____P__PP_P_ SH211972 -13.08 118.20 35 0 -13.10 118.33 1002 -13.08 118.20 TC 35 -13.10 118.22 2 -12.99 118.40 TC 25 1002 12 241
1972 SI WA 22:00:00 TS -13.18 118.07 1002 bom 406 406 P_____O__PP_P_ SH211972 -13.16 118.04 35 0 -13.20 118.10 1002 -13.16 118.04 TC 35 -13.18 118.04 2 -13.11 118.20 TC 25 1002 13 246
1972 SI WA 1972-02-25 00:00:00 TS -13.34 117.67 431 431 O_____P__OP_O_ jtwc_sh SH211972 -13.30 117.70 35 0 -13.42 117.55 1002 -13.30 117.70 TC 35 -13.33 117.68 2 -13.30 117.80 TC 25 1002 12 249
1972 SI WA 01:00:00 TS -13.40 117.47 1002 bom 449 449 P_____O__PP_P_ SH211972 -13.36 117.52 35 0 -13.50 117.30 1002 -13.36 117.52 TC 35 -13.39 117.49 2 -13.36 117.60 TC 25 1001 11 257
1972 SI WA 03:00:00 TS -13.47 117.11 478 478 P_____P__PP_P_ SH211972 -13.46 117.14 35 0 -13.52 117.04 1002 -13.46 117.14 TC 35 -13.48 117.10 2 -13.42 117.21 TC 25 1001 11 262
1972 SI WA 04:00:00 TS -13.47 116.92 1002 bom 488 488 P_____O__PO_P_ SH211972 -13.49 116.93 35 0 -13.50 116.90 1002 -13.49 116.93 TC 35 -13.50 116.90 2 -13.42 117.01 TC 25 1001 12 271
1972 SI WA 06:00:00 TS -13.45 116.49 495 486 O_____P__OP_O_ jtwc_sh SH211972 -13.50 116.50 35 0 -13.44 116.45 1001 -13.50 116.50 TC 35 -13.48 116.46 2 -13.40 116.60 TC 25 1001 13 274
1972 SI WA 07:00:00 TS -13.43 116.25 1001 bom 487 487 P_____O__PP_P_ SH211972 -13.48 116.26 35 0 -13.40 116.20 1001 -13.48 116.26 TC 35 -13.46 116.23 2 -13.38 116.39 TC 25 1000 14 278
1972 SI WA 09:00:00 TS -13.35 115.78 497 487 P_____P__PP_P_ SH211972 -13.38 115.76 35 0 -13.34 115.73 1001 -13.38 115.76 TC 35 -13.37 115.77 2 -13.32 115.96 TC 27 1000 14 280
1972 SI WA 10:00:00 TS -13.30 115.54 1001 bom 491 485 P_____O__PP_P_ SH211972 -13.32 115.50 35 0 -13.30 115.50 1001 -13.32 115.50 TC 35 -13.32 115.53 2 -13.28 115.75 TC 28 1000 14 283
1972 SI WA 12:00:00 TS -13.19 115.06 491 491 O_____P__OP_O_ jtwc_sh SH211972 -13.20 115.00 35 0 -13.16 115.03 1000 -13.20 115.00 TC 35 -13.20 115.05 2 -13.20 115.30 TC 30 1000 14 283
1972 SI WA 13:00:00 TS -13.15 114.83 1000 bom 482 481 P_____O__PP_P_ SH211972 -13.16 114.77 35 0 -13.10 114.80 1000 -13.16 114.77 TC 35 -13.15 114.81 2 -13.16 115.08 TC 30 999 14 281
1972 SI WA 15:00:00 TS -13.07 114.38 482 471 P_____P__PP_P_ SH211972 -13.08 114.34 35 0 -13.02 114.33 1000 -13.08 114.34 TC 35 -13.04 114.33 2 -13.09 114.62 TC 30 999 13 280
1972 SI WA 16:00:00 TS -13.03 114.15 1000 bom 472 472 P_____O__PO_P_ SH211972 -13.05 114.13 35 0 -13.00 114.10 1000 -13.05 114.13 TC 35 -13.00 114.10 1 -13.06 114.39 TC 30 999 13 276
1972 SI WA 18:00:00 TS -12.99 113.70 480 480 O_____P__OP_O_ jtwc_sh SH211972 -13.00 113.70 35 0 -12.99 113.63 999 -13.00 113.70 TC 35 -12.97 113.64 1 -13.00 113.90 TC 30 999 14 274
1972 SI WA 19:00:00 TS -12.98 113.46 999 bom 485 485 P_____O__PP_P_ SH211972 -12.99 113.47 34 0 -13.00 113.40 999 -12.99 113.47 TC 34 -12.96 113.41 1 -12.98 113.63 TC 30 998 14 272
1972 SI WA 21:00:00 TS -12.97 112.97 500 500 P_____P__PP_P_ SH211972 -12.98 112.99 32 -1 -13.00 112.93 999 -12.98 112.99 TC 32 -12.95 112.96 1 -12.94 113.08 TC 32 998 14 271
1972 SI WA 22:00:00 TS -12.97 112.73 999 bom 507 507 P_____O__PP_P_ SH211972 -12.99 112.76 31 -1 -13.00 112.70 999 -12.99 112.76 TC 31 -12.95 112.74 1 -12.92 112.80 TC 33 998 14 270
1972 SI WA 1972-02-26 00:00:00 TS -12.98 112.27 517 517 O_____P__OP_O_ jtwc_sh SH211972 -13.00 112.30 30 -1 -13.00 112.22 998 -13.00 112.30 TC 30 -12.96 112.31 1 -12.90 112.30 TC 35 998 13 270
1972 SI WA 01:00:00 TS -12.98 112.06 998 bom 517 515 P_____O__PP_P_ SH211972 -13.00 112.08 30 -1 -13.00 112.00 998 -13.00 112.08 TC 30 -12.97 112.10 1 -12.89 112.08 TC 35 997 12 270
1972 SI WA 03:00:00 TS -12.98 111.68 515 515 P_____P__PP_P_ SH211972 -12.99 111.67 30 -1 -13.00 111.66 996 -12.99 111.67 TC 30 -12.99 111.69 1 -12.88 111.69 TC 37 996 11 270
1972 SI WA 04:00:00 TS -12.98 111.50 996 bom 515 515 P_____O__PO_P_ SH211972 -12.99 111.47 30 -1 -13.00 111.50 996 -12.99 111.47 TC 30 -13.00 111.50 1 -12.89 111.52 TC 38 996 10 269
1972 SI WA 06:00:00 TS -12.98 111.15 519 519 O_____P__OP_O_ jtwc_sh SH211972 -13.00 111.10 30 -1 -13.00 111.17 994 -13.00 111.10 TC 30 -13.01 111.12 1 -12.90 111.20 TC 40 995 10 269
1972 SI WA 07:00:00 TS -12.99 110.98 994 bom 520 520 P_____O__PP_P_ SH211972 -13.01 110.92 30 -1 -13.00 111.00 994 -13.01 110.92 TC 30 -13.01 110.94 1 -12.91 111.05 TC 40 994 10 268
1972 SI WA 09:00:00 TS -13.00 110.65 529 529 P_____P__PP_P_ SH211972 -13.03 110.58 30 -1 -13.00 110.67 992 -13.03 110.58 TC 30 -13.03 110.59 1 -12.93 110.79 TC 42 993 9 267
1972 SI WA 10:00:00 TS -13.01 110.49 992 bom 531 531 P_____O__PP_P_ SH211972 -13.05 110.41 30 -1 -13.00 110.50 992 -13.05 110.41 TC 30 -13.04 110.42 1 -12.95 110.67 TC 43 992 9 265
1972 SI WA 12:00:00 TS -13.04 110.18 537 537 O_____P__OP_O_ jtwc_sh SH211972 -13.10 110.10 30 -1 -12.98 110.17 990 -13.10 110.10 TC 30 -13.07 110.09 1 -13.00 110.40 TC 45 991 9 263
1972 SI WA 13:00:00 TS -13.07 110.02 990 bom 553 553 P_____O__PP_P_ SH211972 -13.12 109.94 30 -1 -13.00 110.00 990 -13.12 109.94 TC 30 -13.10 109.94 1 -13.04 110.24 TC 46 990 9 258
1972 SI WA 15:00:00 TS -13.14 109.70 559 559 P_____P__PP_P_ SH211972 -13.17 109.64 30 -1 -13.12 109.67 988 -13.17 109.64 TC 30 -13.16 109.64 1 -13.13 109.91 TC 50 988 10 255
1972 SI WA 16:00:00 TS -13.19 109.54 988 bom 575 575 P_____O__PO_P_ SH211972 -13.20 109.49 30 -1 -13.20 109.50 988 -13.20 109.49 TC 30 -13.20 109.50 1 -13.18 109.74 TC 51 987 10 251
1972 SI WA 18:00:00 TS -13.31 109.22 594 594 O_____P__OP_O_ jtwc_sh SH211972 -13.30 109.20 30 -1 -13.33 109.17 986 -13.30 109.20 TC 30 -13.31 109.18 1 -13.30 109.40 TC 55 986 10 249
1972 SI WA 19:00:00 TS -13.38 109.05 986 bom 608 608 P_____O__PP_P_ SH211972 -13.37 109.03 30 -1 -13.40 109.00 986 -13.37 109.03 TC 30 -13.38 109.03 1 -13.36 109.22 TC 55 985 11 244
1972 SI WA 21:00:00 TS -13.54 108.72 632 632 P_____P__PP_P_ SH211972 -13.54 108.71 30 -1 -13.60 108.67 983 -13.54 108.71 TC 30 -13.52 108.74 1 -13.50 108.85 TC 57 983 11 242
1972 SI WA 22:00:00 TS -13.63 108.56 983 bom 646 646 P_____O__PP_P_ SH211972 -13.63 108.55 30 -1 -13.70 108.50 983 -13.63 108.55 TC 30 -13.59 108.60 1 -13.57 108.68 TC 58 982 10 241
1972 SI WA 1972-02-27 00:00:00 TS -13.78 108.28 672 672 O_____P__OP_O_ jtwc_sh SH211972 -13.80 108.30 30 -1 -13.85 108.13 980 -13.80 108.30 TC 30 -13.74 108.36 1 -13.70 108.40 TC 60 981 9 240
1972 SI WA 01:00:00 TS -13.84 108.18 980 bom 672 672 P_____O__PP_P_ SH211972 -13.87 108.21 29 -1 -13.90 108.00 980 -13.87 108.21 TC 29 -13.81 108.25 1 -13.76 108.30 TC 60 980 5 234
1972 SI WA 03:00:00 TS -13.93 108.07 683 683 P_____P__PP_P_ SH211972 -13.98 108.08 27 -1 -13.90 107.97 980 -13.98 108.08 TC 27 -13.94 108.07 1 -13.87 108.17 TC 60 980 4 226
1972 SI WA 04:00:00 TS -13.97 108.04 980 bom 695 695 P_____O__PO_P_ SH211972 -14.03 108.04 26 -1 -13.90 108.00 980 -14.03 108.04 TC 26 -14.00 108.00 1 -13.92 108.14 TC 60 980 3 211
1972 SI WA 06:00:00 TS -14.04 108.00 695 695 O_____P__OP_O_ jtwc_sh SH211972 -14.10 108.00 25 -1 -13.96 108.00 980 -14.10 108.00 TC 25 -14.08 107.91 1 -14.00 108.10 TC 60 980 2 212
1972 SI WA 07:00:00 TS -14.07 107.99 980 bom 706 706 P_____O__PP_P_ SH211972 -14.13 107.98 25 -1 -14.00 108.00 980 -14.13 107.98 TC 25 -14.11 107.89 1 -14.03 108.08 TC 60 980 2 0
1972 SI WA 09:00:00 TS -14.12 107.98 706 706 P_____P__PP_P_ SH211972 -14.16 107.98 25 -1 -14.07 108.00 980 -14.16 107.98 TC 25 -14.17 107.87 1 -14.06 108.08 TC 60 980 1 0
1972 SI WA 10:00:00 TS -14.14 107.99 980 bom 706 706 P_____O__PP_P_ SH211972 -14.18 107.98 25 -1 -14.10 108.00 980 -14.18 107.98 TC 25 -14.19 107.88 1 -14.07 108.08 TC 60 980 1 156
1972 SI WA 12:00:00 TS -14.18 108.00 718 718 O_____P__OP_O_ jtwc_sh SH211972 -14.20 108.00 25 -1 -14.17 108.00 980 -14.20 108.00 TC 25 -14.23 107.91 1 -14.10 108.10 TC 60 980 1 166
1972 SI WA 13:00:00 TS -14.21 108.00 980 bom 718 718 P_____O__PP_P_ SH211972 -14.22 108.00 25 -1 -14.20 108.00 980 -14.22 108.00 TC 25 -14.25 107.93 1 -14.13 108.10 TC 60 980 2 164
1972 SI WA 15:00:00 TS -14.26 108.01 729 729 P_____P__PP_P_ SH211972 -14.25 107.99 25 -1 -14.27 108.00 980 -14.25 107.99 TC 25 -14.28 107.98 1 -14.20 108.09 TC 60 980 2 165
1972 SI WA 16:00:00 TS -14.29 108.01 980 bom 729 729 P_____O__PO_P_ SH211972 -14.27 107.99 25 -1 -14.30 108.00 980 -14.27 107.99 TC 25 -14.30 108.00 1 25 -14.24 108.09 TC 60 980 2 162
1972 SI WA 18:00:00 TS -14.34 108.02 729 729 O_____P__OP_O_ jtwc_sh SH211972 -14.30 108.00 25 -1 -14.37 108.00 980 -14.30 108.00 TC 25 -14.34 108.00 1 -14.30 108.10 TC 60 980 1 0
1972 SI WA 19:00:00 TS -14.35 108.02 980 bom 740 740 P_____O__PP_P_ SH211972 -14.32 108.01 25 -1 -14.40 108.00 980 -14.32 108.01 TC 25 -14.35 108.00 1 -14.32 108.11 TC 60 980 1 0
1972 SI WA 21:00:00 TS -14.38 108.05 740 739 P_____P__PP_P_ SH211972 -14.35 108.05 25 -1 -14.40 107.99 980 -14.35 108.05 TC 25 -14.38 108.00 1 -14.35 108.14 TC 60 980 1 136
1972 SI WA 22:00:00 TS -14.39 108.06 980 bom 739 739 P_____O__PP_P_ SH211972 -14.37 108.07 25 -1 -14.40 108.00 980 -14.37 108.07 TC 25 -14.40 108.01 1 -14.36 108.15 TC 60 980 1 131
1972 SI WA 1972-02-28 00:00:00 TS -14.43 108.10 739 739 O_____P__OP_O_ jtwc_sh SH211972 -14.40 108.10 25 -1 -14.47 108.07 980 -14.40 108.10 TC 25 -14.43 108.02 1 -14.40 108.20 TC 60 980 2 137
1972 SI WA 01:00:00 TS -14.45 108.11 980 bom 751 751 P_____O__PP_P_ SH211972 -14.41 108.10 24 -1 -14.50 108.10 980 -14.41 108.10 TC 24 -14.45 108.04 1 -14.43 108.22 TC 60 980 1 156
1972 SI WA 03:00:00 TS -14.48 108.12 751 751 P_____P__PP_P_ SH211972 -14.44 108.09 22 -1 -14.50 108.09 980 -14.44 108.09 TC 22 -14.48 108.07 1 -14.49 108.28 TC 60 980 1 151
1972 SI WA 04:00:00 TS -14.50 108.14 981 bom 751 750 P_____O__PO_P_ SH211972 -14.46 108.08 21 -1 -14.50 108.10 981 -14.46 108.08 TC 21 -14.50 108.10 1 -14.53 108.31 TC 60 980 2 135
1972 SI WA 06:00:00 TS -14.55 108.19 761 761 O_____P__OP_O_ jtwc_sh SH211972 -14.50 108.10 20 -1 -14.57 108.22 982 -14.50 108.10 TC 20 -14.55 108.13 1 -14.60 108.40 TC 60 981 3 129
1972 SI WA 07:00:00 TS -14.58 108.24 983 bom 761 761 P_____O__PP_P_ SH211972 -14.53 108.13 20 -1 -14.60 108.30 983 -14.53 108.13 TC 20 -14.57 108.15 1 -14.64 108.45 TC 60 981 3 118
1972 SI WA 09:00:00 TS -14.63 108.34 761 759 P_____P__PP_P_ SH211972 -14.60 108.21 20 -1 -14.60 108.43 984 -14.60 108.21 TC 20 -14.62 108.20 1 -14.71 108.58 TC 60 981 4 115
1972 SI WA 10:00:00 TS -14.65 108.40 985 bom 769 766 P_____O__PP_P_ SH211972 -14.64 108.27 20 -1 -14.60 108.50 985 -14.64 108.27 TC 20 -14.65 108.24 1 -14.74 108.65 TC 60 981 4 112
1972 SI WA 12:00:00 TS -14.71 108.56 763 763 O_____P__OP_O_ jtwc_sh SH211972 -14.70 108.40 20 -1 -14.67 108.69 985 -14.70 108.40 TC 20 -14.70 108.34 1 -14.80 108.80 TC 60 982 5 110
1972 SI WA 13:00:00 TS -14.73 108.63 986 bom 763 759 P_____O__PP_P_ SH211972 -14.72 108.45 20 -1 -14.70 108.80 986 -14.72 108.45 TC 20 -14.73 108.41 1 -14.82 108.88 TC 59 982 5 103
1972 SI WA 15:00:00 TS -14.76 108.80 767 764 P_____P__PP_P_ SH211972 -14.76 108.58 20 -1 -14.70 109.00 986 -14.76 108.58 TC 20 -14.78 108.59 1 -14.86 109.04 TC 57 983 5 100
1972 SI WA 16:00:00 TS -14.78 108.89 987 bom 764 759 P_____O__PO_P_ SH211972 -14.77 108.67 20 -1 -14.70 109.10 987 -14.77 108.67 TC 20 -14.80 108.70 1 -14.87 109.12 TC 56 983 6 100
1972 SI WA 18:00:00 TS -14.82 109.11 759 757 O_____P__OP_O_ jtwc_sh SH211972 -14.80 108.90 20 -1 -14.76 109.30 987 -14.80 108.90 TC 20 -14.84 108.97 1 -14.90 109.30 TC 55 985 7 100
1972 SI WA 19:00:00 TS -14.84 109.23 988 bom 757 754 P_____O__PP_P_ SH211972 -14.82 109.05 19 -1 -14.80 109.40 988 -14.82 109.05 TC 19 -14.85 109.12 1 -14.92 109.38 TC 54 985 8 100
1972 SI WA 21:00:00 TS -14.88 109.50 761 759 P_____P__PP_P_ SH211972 -14.85 109.43 17 -1 -14.87 109.60 988 -14.85 109.43 TC 17 -14.88 109.47 1 -14.95 109.54 TC 52 986 8 99
1972 SI WA 22:00:00 TS -14.91 109.65 989 bom 756 750 P_____O__PP_P_ SH211972 -14.87 109.65 16 -1 -14.90 109.70 989 -14.87 109.65 TC 16 -14.90 109.66 1 -14.97 109.64 TC 51 986 10 98
1972 SI WA 1972-02-29 00:00:00 TS -14.95 109.99 761 759 O_____P__OP_O_ jtwc_sh SH211972 -14.90 110.10 15 -1 -14.97 109.84 989 -14.90 110.10 TC 15 -14.93 110.08 1 -15.00 109.90 TC 50 988 10 97
1972 SI WA 01:00:00 TS -14.97 110.19 990 bom 756 748 P_____O__PP_P_ SH211972 -14.91 110.32 15 -1 -15.00 110.00 990 -14.91 110.32 TC 15 -14.95 110.30 1 -15.02 110.07 TC 50 987 13 93
1972 SI WA 03:00:00 TS -14.99 110.67 747 744 P_____P__PP_P_ SH211972 -14.94 110.77 15 -1 -15.01 110.64 989 -14.94 110.77 TC 15 -14.98 110.76 1 -15.05 110.48 TC 52 987 15 92
1972 SI WA 04:00:00 TS -15.00 110.94 989 bom 744 739 P_____O__PO_P_ SH211972 -14.96 111.01 15 -1 -15.00 111.00 989 -14.96 111.01 TC 15 -15.00 111.00 1 -15.07 110.70 TC 53 986 15 93
1972 SI WA 06:00:00 TS -15.02 111.45 739 739 O_____P__OP_O_ jtwc_sh SH211972 -15.00 111.50 15 -1 -14.99 111.54 987 -15.00 111.50 TC 15 -15.04 111.48 1 -15.10 111.20 TC 55 986 15 94
1972 SI WA 07:00:00 TS -15.04 111.71 987 bom 739 739 P_____O__PP_P_ SH211972 -15.03 111.76 15 -1 -15.00 111.80 987 -15.03 111.76 TC 15 -15.07 111.73 1 -15.12 111.45 TC 55 985 15 96
1972 SI WA 09:00:00 TS -15.10 112.24 748 741 P_____P__PP_P_ SH211972 -15.09 112.29 15 -1 -15.06 112.34 984 -15.09 112.29 TC 15 -15.12 112.25 1 -15.15 111.98 TC 57 983 16 96
1972 SI WA 10:00:00 TS -15.13 112.51 984 bom 741 719 P_____O__PP_P_ SH211972 -15.13 112.56 15 -1 -15.10 112.60 984 -15.13 112.56 TC 15 -15.14 112.51 1 -15.17 112.25 TC 58 982 15 97
1972 SI WA 12:00:00 TS -15.19 113.04 719 708 O_____P__OP_O_ jtwc_sh SH211972 -15.20 113.10 15 -1 -15.17 113.06 981 -15.20 113.10 TC 15 -15.19 113.05 1 -15.20 112.80 TC 60 981 15 97
1972 SI WA 13:00:00 TS -15.22 113.29 981 bom 703 667 P_____O__PP_P_ SH211972 -15.24 113.36 14 -1 -15.20 113.30 981 -15.24 113.36 TC 14 -15.22 113.31 1 -15.22 113.07 TC 60 980 15 97
1972 SI WA 15:00:00 TS -15.28 113.81 667 658 P_____P__PP_P_ SH211972 -15.31 113.86 12 -1 -15.27 113.83 978 -15.31 113.86 TC 12 -15.27 113.84 1 -15.25 113.62 TC 62 978 15 97
1972 SI WA 16:00:00 TS -15.31 114.07 978 bom 653 626 P_____O__PO_P_ SH211972 -15.34 114.11 11 -1 -15.30 114.10 978 -15.34 114.11 TC 11 -15.30 114.10 1 -15.27 113.88 TC 63 977 15 97
1972 SI WA 18:00:00 TS -15.37 114.57 622 615 O_____P__OP_O_ jtwc_sh SH211972 -15.40 114.60 10 -1 -15.37 114.63 975 -15.40 114.60 TC 10 -15.35 114.62 1 -15.30 114.40 TC 65 976 15 96
1972 SI WA 19:00:00 TS -15.40 114.83 975 bom 615 600 P_____O__PP_P_ SH211972 -15.42 114.86 10 -1 -15.40 114.90 975 -15.42 114.86 TC 10 -15.38 114.87 1 -15.32 114.66 TC 66 975 15 96
1972 SI WA 21:00:00 TS -15.44 115.34 600 584 P_____P__PP_P_ SH211972 -15.46 115.38 10 -1 -15.47 115.46 972 -15.46 115.38 TC 10 -15.43 115.37 1 -15.35 115.15 TC 70 973 15 95
1972 SI WA 22:00:00 TS -15.46 115.59 972 bom 582 575 P_____O__PP_P_ SH211972 -15.47 115.63 10 -1 -15.50 115.70 972 -15.47 115.63 TC 10 -15.46 115.61 1 -15.37 115.38 TC 71 972 13 95
1972 SI WA 1972-03-01 00:00:00 TS -15.50 116.02 575 573 O_____P__OP_O_ jtwc_sh SH211972 -15.50 116.10 10 -1 -15.50 116.03 970 -15.50 116.10 TC 10 -15.51 116.08 1 -15.40 115.80 TC 75 971 12 94
1972 SI WA 01:00:00 TS -15.51 116.23 970 bom 573 570 P_____O__PP_P_ SH211972 -15.52 116.31 10 -1 -15.50 116.20 970 -15.52 116.31 TC 10 -15.53 116.30 1 -15.41 115.99 TC 75 970 12 96
1972 SI WA 03:00:00 TS -15.55 116.63 559 554 P_____P__PP_P_ SH211972 -15.55 116.70 10 -1 -15.56 116.68 968 -15.55 116.70 TC 10 -15.58 116.71 1 -15.44 116.34 TC 75 969 11 96
1972 SI WA 04:00:00 TS -15.58 116.82 968 bom 554 546 P_____O__PO_P_ SH211972 -15.57 116.88 10 -1 -15.60 116.90 968 -15.57 116.88 TC 10 -15.60 116.90 1 10 -15.46 116.50 TC 75 969 10 98
1972 SI WA 06:00:00 TS -15.62 117.14 546 538 O_____P__OP_O_ jtwc_sh SH211972 -15.60 117.20 10 -1 -15.67 117.18 966 -15.60 117.20 TC 10 -15.64 117.24 1 10 -15.50 116.80 TC 75 968 9 98
1972 SI WA 07:00:00 TS -15.64 117.28 966 bom 538 520 P_____O__PP_P_ SH211972 -15.62 117.35 10 -1 -15.70 117.30 966 -15.62 117.35 TC 10 -15.66 117.39 1 11 -15.53 116.96 TC 75 967 8 98
1972 SI WA 09:00:00 TS -15.67 117.56 517 512 P_____P__PP_P_ SH211972 -15.65 117.63 10 -1 -15.70 117.57 965 -15.65 117.63 TC 10 -15.69 117.68 1 12 -15.60 117.26 TC 77 966 8 97
1972 SI WA 10:00:00 TS -15.69 117.70 965 bom 512 492 P_____O__PP_P_ SH211972 -15.67 117.76 10 -1 -15.70 117.70 965 -15.67 117.76 TC 10 -15.71 117.81 1 12 -15.64 117.41 TC 78 966 8 99
1972 SI WA 12:00:00 TS -15.73 117.95 482 468 O_____P__OP_O_ jtwc_sh SH211972 -15.70 118.00 10 -1 -15.77 117.97 964 -15.70 118.00 TC 10 -15.74 118.05 1 13 -15.70 117.70 TC 80 965 8 100
1972 SI WA 13:00:00 TS -15.75 118.08 964 bom 468 448 P_____O__PP_P_ SH211972 -15.72 118.12 10 -1 -15.80 118.10 964 -15.72 118.12 TC 10 -15.75 118.16 1 13 -15.72 117.86 TC 80 964 8 97
1972 SI WA 15:00:00 TS -15.78 118.34 448 438 P_____P__PP_P_ SH211972 -15.75 118.36 12 -1 -15.80 118.37 963 -15.75 118.36 TC 12 -15.78 118.39 1 14 -15.76 118.17 TC 82 964 7 96
1972 SI WA 16:00:00 TS -15.80 118.47 963 bom 428 409 P_____O__PO_P_ SH211972 -15.77 118.47 13 -1 -15.80 118.50 963 -15.77 118.47 TC 13 -15.80 118.50 1 15 -15.77 118.32 TC 83 963 7 98
1972 SI WA 18:00:00 TS -15.83 118.72 409 394 O_____P__OP_O_ jtwc_sh SH211972 -15.80 118.70 15 -1 -15.87 118.77 962 -15.80 118.70 TC 15 -15.84 118.74 1 17 -15.80 118.60 TC 85 963 7 100
1972 SI WA 19:00:00 TS -15.85 118.84 962 bom 394 375 P_____O__PP_P_ SH211972 -15.82 118.82 16 -1 -15.90 118.90 962 -15.82 118.82 TC 16 -15.86 118.86 1 18 -15.82 118.71 TC 85 962 6 99
1972 SI WA 21:00:00 TS -15.88 119.05 365 365 P_____P__PP_P_ SH211972 -15.85 119.05 20 -1 -15.90 119.11 961 -15.85 119.05 TC 20 -15.90 119.09 1 21 -15.85 118.90 TC 85 962 6 98
1972 SI WA 22:00:00 TS -15.90 119.16 961 bom 356 337 P_____O__PP_P_ SH211972 -15.87 119.17 21 -1 -15.90 119.20 961 -15.87 119.17 TC 21 -15.91 119.21 1 22 -15.87 118.99 TC 85 962 6 100
1972 SI WA 1972-03-02 00:00:00 TS -15.94 119.37 337 322 O_____P__OP_O_ jtwc_sh SH211972 -15.90 119.40 25 -1 -15.97 119.39 960 -15.90 119.40 TC 25 -15.95 119.44 1 25 -15.90 119.20 TC 85 962 6 100
1972 SI WA 01:00:00 TS -15.96 119.49 960 bom 322 303 P_____O__PP_P_ SH211972 -15.92 119.51 25 -1 -16.00 119.50 960 4 -15.92 119.51 TC 25 -15.96 119.55 1 26 -15.92 119.34 TC 85 961 7 97
1972 SI WA 03:00:00 TS -15.98 119.73 303 293 P_____P__PP_P_ SH211972 -15.96 119.74 27 -1 -16.01 119.76 960 -15.96 119.74 TC 27 -15.99 119.78 1 28 -15.96 119.63 TC 85 961 7 96
1972 SI WA 04:00:00 TS -15.99 119.86 961 bom 283 264 P_____O__PO_P_ SH211972 -15.97 119.86 28 -1 -16.00 119.90 961 -15.97 119.86 TC 28 -16.00 119.90 1 30 -15.97 119.79 TC 85 961 7 94
1972 SI WA 06:00:00 TS -16.00 120.12 264 228 O_____P__OP_O_ jtwc_sh SH211972 -16.00 120.10 30 -1 -16.00 120.18 961 -16.00 120.10 TC 30 -16.01 120.14 1 30 -16.00 120.10 TC 85 961 8 91
1972 SI WA 09:00:00 TS -16.01 120.52 228 219 P_____P__PP_P_ SH211972 -16.01 120.50 32 -1 -16.00 120.58 962 -16.01 120.50 TC 32 -16.01 120.52 1 32 -16.01 120.52 TC 85 962 8 90
1972 SI WA 10:00:00 TS -16.00 120.65 963 bom 219 193 P_____O__PP_P_ SH211972 -16.01 120.64 33 -1 -16.00 120.70 963 -16.01 120.64 TC 33 -16.01 120.64 1 32 -16.01 120.65 TC 85 962 7 89
1972 SI WA 12:00:00 TS -16.00 120.90 193 185 O_____P__OP_O_ jtwc_sh SH211972 -16.00 120.90 35 0 -16.00 120.90 963 -16.00 120.90 TC 35 -16.00 120.89 1 33 -16.00 120.90 TC 85 963 7 89
1972 SI WA 13:00:00 TS -16.00 121.02 964 bom 185 170 P_____O__PP_P_ SH211972 -16.00 121.02 35 0 -16.00 121.00 964 -16.00 121.02 TC 35 -16.00 121.02 1 33 -16.00 121.02 TC 84 963 7 90
1972 SI WA 15:00:00 TS -16.00 121.27 162 154 P_____P__PP_P_ SH211972 -16.00 121.25 37 0 -16.00 121.26 964 -16.00 121.25 TC 37 -16.00 121.27 1 34 -16.00 121.25 TC 82 964 7 90
1972 SI WA 16:00:00 TS -16.00 121.39 965 bom 154 139 P_____O__PO_P_ SH211972 -16.00 121.36 38 0 -16.00 121.40 965 -16.00 121.36 TC 38 -16.00 121.40 2 35 -16.00 121.36 TC 81 964 7 90
1972 SI WA 18:00:00 TS -16.00 121.64 139 132 O_____P__OP_O_ jtwc_sh SH211972 -16.00 121.60 40 0 -16.00 121.67 965 -16.00 121.60 TC 40 -16.00 121.65 2 44 -16.00 121.60 TC 80 966 7 89
1972 SI WA 19:00:00 TS -16.00 121.77 966 bom 123 108 P_____O__PP_P_ SH211972 -15.99 121.73 46 0 -16.00 121.80 966 -15.99 121.73 TC 46 -15.99 121.77 2 48 -16.00 121.73 TC 79 966 8 89
1972 SI WA 21:00:00 TS -15.99 122.03 108 100 P_____P__PP_P_ SH211972 -15.98 121.99 60 0 -16.00 122.07 965 -15.98 121.99 TC 60 -15.99 122.02 2 57 -15.99 122.00 TC 77 967 8 89
1972 SI WA 22:00:00 TS -15.99 122.16 965 bom 92 77 P_____O__PP_P_ SH211972 -15.98 122.13 66 1 -16.00 122.20 965 -15.98 122.13 TC 66 -16.00 122.14 2 62 -15.99 122.14 TC 76 967 7 92
1972 SI WA 1972-03-03 00:00:00 TS -16.00 122.40 77 70 O_____P__OP_O_ jtwc_sh SH211972 -16.00 122.40 80 1 -15.99 122.40 968 -16.00 122.40 TC 80 -16.01 122.39 2 71 -16.00 122.40 TC 75 969 7 94
1972 SI WA 01:00:00 TS -16.02 122.50 970 bom 70 49 P_____O__PP_P_ SH211972 -16.02 122.53 80 1 -16.00 122.50 970 -16.02 122.53 TC 80 -16.03 122.52 2 76 -16.01 122.52 TC 74 969 6 102
1972 SI WA 03:00:00 TS -16.07 122.73 49 46 P_____P__PP_P_ SH211972 -16.07 122.80 82 1 -16.06 122.84 971 -16.07 122.80 TC 82 -16.07 122.77 2 85 -16.03 122.75 TC 72 970 6 105
1972 SI WA 04:00:00 TS -16.10 122.82 972 bom 46 33 P_____O__PO_P_ SH211972 -16.11 122.93 83 2 -16.10 122.90 972 -16.11 122.93 TC 83 -16.10 122.90 4 90 -16.05 122.86 TC 71 970 5 120
1972 SI WA 06:00:00 TS -16.18 122.93 33 33 O_____P__OP_O_ jtwc_sh SH211972 -16.20 123.20 85 2 -16.17 122.40 973 -16.20 123.20 TC 85 -16.20 123.17 4 84 -16.10 123.10 TC 70 972 5 120
1972 SI WA 07:00:00 TS -16.22 123.03 974 bom 33 21 P_____O__PP_P_ SH211972 -16.26 123.34 82 1 -16.20 122.30 974 -16.26 123.34 TC 82 -16.26 123.31 4 82 -16.12 123.23 TC 68 972 10 103
1972 SI WA 09:00:00 TS -16.29 123.45 21 0 P_____P__PP_P_ SH211972 -16.39 123.61 77 1 -16.20 123.20 975 -16.39 123.61 TC 77 -16.38 123.58 4 77 -16.18 123.49 TC 65 974 12 101
1972 SI WA 10:00:00 TS -16.34 123.67 976 bom 0 0 P_____O__PP_P_ SH211972 -16.46 123.74 75 1 -16.20 123.70 976 -16.46 123.74 TC 75 -16.45 123.72 4 75 -16.21 123.63 TC 63 974 11 105
1972 SI WA 12:00:00 TS -16.44 123.99 0 0 O_____P__OP_O_ jtwc_sh SH211972 -16.60 124.00 70 1 -16.23 124.02 977 -16.60 124.00 TC 70 -16.58 123.99 4 69 -16.30 123.90 TC 60 976 9 111
1972 SI WA 13:00:00 TS -16.50 124.11 978 bom 0 0 P_____O__PP_P_ SH211972 -16.66 124.12 67 1 -16.30 124.10 978 -16.66 124.12 TC 67 -16.64 124.12 4 67 -16.36 124.03 TC 57 976 9 123
1972 SI WA 15:00:00 TS -16.68 124.37 0 0 P_____P__PP_P_ SH211972 -16.78 124.36 62 0 -16.64 124.37 979 -16.78 124.36 TC 62 -16.75 124.38 4 62 -16.49 124.28 TC 52 977 9 125
1972 SI WA 16:00:00 TS -16.76 124.49 980 bom 0 0 P_____O__PO_P_ SH211972 -16.83 124.47 60 0 -16.80 124.50 980 -16.83 124.47 TC 60 -16.80 124.50 2 60 -16.56 124.42 TC 50 977 8 118
1972 SI WA 18:00:00 TS -16.86 124.73 0 0 O_____P__OP_O_ jtwc_sh SH211972 -16.90 124.70 55 0 -16.90 124.77 980 -16.90 124.70 TC 55 -16.87 124.73 2 53 -16.70 124.70 TC 45 979 8 111
1972 SI WA 19:00:00 TS -16.89 124.86 980 bom 0 0 P_____O__PP_P_ SH211972 -16.92 124.82 51 0 -16.90 124.90 980 -16.92 124.82 TC 51 -16.89 124.84 2 50 -16.76 124.85 TC 43 980 7 99
1972 SI WA 21:00:00 TS -16.92 125.11 0 0 P_____P__PP_P_ SH211972 -16.93 125.05 45 0 -16.91 125.17 984 -16.93 125.05 TC 45 -16.92 125.04 2 43 -16.87 125.18 TC 40 984 7 95
1972 SI WA 22:00:00 TS -16.92 125.23 987 bom 0 0 P_____O__PP_P_ SH211972 -16.92 125.16 41 0 -16.90 125.30 987 -16.92 125.16 TC 41 -16.93 125.14 2 40 -16.91 125.35 TC 38 986 7 90
1972 SI WA 1972-03-04 00:00:00 TS -16.92 125.46 0 0 O_____P__OP_O_ jtwc_sh SH211972 -16.90 125.40 35 0 -16.90 125.57 992 -16.90 125.40 TC 35 -16.93 125.33 2 33 -17.00 125.70 TC 35 990 5 89
1972 SI WA 01:00:00 NR -16.92 125.50 995 bom 0 0 ______O___P___ SH211972 -1 -16.90 125.70 995 TC -16.92 125.43 2 30 TC 3 85
1972 SI WA 03:00:00 NR -16.91 125.61 0 0 __________P___ SH211972 -1 TC -16.91 125.61 2 23 TC 4 85
1972 SI WA 04:00:00 NR -16.90 125.70 0 __________O___ SH211972 -1 TC -16.90 125.70 1 20 TC 5 85